Time;durP1;ratioP1;P1;durP2;ratioP2;P2;SDS_P1;SDS_P2;PMS_P1;PMS_P2;Temp;Humidity;BMP_temperature;BMP_pressure;BME280_temperature;BME280_humidity;BME280_pressure;Samples;Min_cycle;Max_cycle;Signal;HPM_P1;HPM_P2
2023/10/16 00:01:58;;;;;;;0.50;0.50;;;6.10;99.90;;;;;;6249431;23;20188;-76
2023/10/16 00:04:25;;;;;;;0.40;0.40;;;6.20;99.90;;;;;;6223131;23;20685;-78
2023/10/16 00:06:53;;;;;;;0.60;0.60;;;6.20;99.90;;;;;;6256967;22;20190;-78
2023/10/16 00:09:24;;;;;;;1.65;1.55;;;6.00;99.90;;;;;;6249536;23;20203;-77
2023/10/16 00:11:51;;;;;;;1.35;1.25;;;6.20;99.90;;;;;;6249173;23;20238;-77
2023/10/16 00:14:25;;;;;;;0.50;0.50;;;6.20;99.90;;;;;;6247898;23;20538;-77
2023/10/16 00:16:52;;;;;;;1.58;1.48;;;6.10;99.90;;;;;;6248951;23;20163;-78
2023/10/16 00:19:20;;;;;;;0.50;0.50;;;6.20;99.90;;;;;;6248801;23;20362;-78
2023/10/16 00:21:47;;;;;;;0.60;0.60;;;6.10;99.90;;;;;;6248870;23;20205;-77
2023/10/16 00:24:14;;;;;;;0.40;0.40;;;6.20;99.90;;;;;;6251453;23;20190;-77
2023/10/16 00:26:48;;;;;;;0.50;0.50;;;6.20;99.90;;;;;;6250345;23;20180;-76
2023/10/16 00:29:17;;;;;;;0.50;0.50;;;6.20;99.90;;;;;;6249447;23;20176;-76
2023/10/16 00:31:44;;;;;;;0.50;0.50;;;6.20;99.90;;;;;;6248586;23;20203;-76
2023/10/16 00:34:19;;;;;;;0.50;0.50;;;6.20;99.90;;;;;;6249662;23;20253;-77
2023/10/16 00:36:49;;;;;;;0.50;0.50;;;6.30;99.90;;;;;;6248275;23;20464;-77
2023/10/16 00:39:18;;;;;;;1.02;0.93;;;6.40;99.90;;;;;;6251323;23;20182;-77
2023/10/16 00:41:50;;;;;;;0.50;0.50;;;6.20;99.90;;;;;;6250798;23;20194;-78
2023/10/16 00:44:17;;;;;;;0.80;0.80;;;6.20;99.90;;;;;;6227638;23;20243;-77
2023/10/16 00:46:48;;;;;;;0.60;0.60;;;6.30;99.90;;;;;;6253042;23;20237;-78
2023/10/16 00:49:18;;;;;;;0.50;0.50;;;6.10;99.90;;;;;;6249585;23;20171;-76
2023/10/16 00:51:46;;;;;;;0.50;0.50;;;6.00;99.90;;;;;;6248290;23;20207;-79
2023/10/16 00:54:19;;;;;;;0.85;0.85;;;5.90;99.90;;;;;;6248753;23;20504;-77
2023/10/16 00:56:51;;;;;;;0.50;0.50;;;5.80;99.90;;;;;;6249023;23;20179;-77
2023/10/16 00:59:18;;;;;;;0.55;0.50;;;5.70;99.90;;;;;;6223036;23;20387;-77
2023/10/16 01:01:46;;;;;;;0.63;0.63;;;5.60;99.90;;;;;;6249681;23;20198;-77
2023/10/16 01:04:14;;;;;;;1.15;1.15;;;5.50;99.90;;;;;;6249269;23;20190;-77
2023/10/16 01:06:44;;;;;;;0.50;0.50;;;5.40;99.90;;;;;;6249079;23;20186;-77
2023/10/16 01:09:25;;;;;;;0.50;0.50;;;5.30;99.90;;;;;;6248817;23;20168;-77
2023/10/16 01:11:54;;;;;;;0.40;0.40;;;5.30;99.90;;;;;;6249010;23;20232;-76
2023/10/16 01:14:21;;;;;;;1.38;1.30;;;5.20;99.90;;;;;;6248967;23;20212;-77
2023/10/16 01:16:49;;;;;;;0.47;0.47;;;5.20;99.90;;;;;;6249400;23;20193;-79
2023/10/16 01:19:19;;;;;;;1.15;0.77;;;5.10;99.90;;;;;;6248676;23;20204;-79
2023/10/16 01:21:48;;;;;;;0.40;0.40;;;5.20;99.90;;;;;;6249385;23;20174;-77
2023/10/16 01:24:16;;;;;;;1.05;1.05;;;5.20;99.90;;;;;;6249391;23;20209;-77
2023/10/16 01:26:43;;;;;;;2.88;2.20;;;5.20;99.90;;;;;;6250091;23;20209;-79
2023/10/16 01:29:14;;;;;;;0.50;0.50;;;5.10;99.90;;;;;;6249657;23;20439;-80
2023/10/16 01:31:44;;;;;;;0.50;0.50;;;5.20;99.90;;;;;;6248793;23;20195;-77
2023/10/16 01:34:11;;;;;;;0.50;0.50;;;5.10;99.90;;;;;;6248641;23;20421;-77
2023/10/16 01:36:46;;;;;;;0.80;0.80;;;5.10;99.90;;;;;;6248957;23;20184;-76
2023/10/16 01:42:11;;;;;;;0.40;0.40;;;4.90;99.90;;;;;;6251279;23;20172;-77
2023/10/16 01:44:43;;;;;;;1.10;1.10;;;5.00;99.90;;;;;;6266555;23;20191;-78
2023/10/16 01:47:17;;;;;;;0.40;0.40;;;5.10;99.90;;;;;;6238228;23;20150;-79
2023/10/16 01:49:49;;;;;;;0.40;0.40;;;5.10;99.90;;;;;;6259706;23;20180;-78
2023/10/16 01:52:16;;;;;;;0.40;0.40;;;5.00;99.90;;;;;;6250262;23;20208;-76
2023/10/16 01:54:45;;;;;;;0.50;0.50;;;5.00;99.90;;;;;;6248505;23;20910;-78
2023/10/16 01:57:13;;;;;;;0.63;0.63;;;5.00;99.90;;;;;;6248088;23;20491;-76
2023/10/16 01:59:43;;;;;;;0.52;0.52;;;4.80;99.90;;;;;;6247954;23;20180;-76
2023/10/16 02:02:12;;;;;;;0.40;0.40;;;4.80;99.90;;;;;;6248098;23;20194;-78
2023/10/16 02:04:41;;;;;;;1.15;0.82;;;4.90;99.90;;;;;;6247762;23;20170;-76
2023/10/16 02:07:11;;;;;;;0.55;0.55;;;4.80;99.90;;;;;;6247827;23;20224;-78
2023/10/16 02:09:40;;;;;;;0.43;0.43;;;4.80;99.90;;;;;;6247941;23;20201;-77
2023/10/16 02:12:14;;;;;;;0.40;0.40;;;4.90;99.90;;;;;;6247851;23;20215;-77
2023/10/16 02:14:44;;;;;;;0.40;0.40;;;4.90;99.90;;;;;;6222277;23;20165;-77
2023/10/16 02:17:19;;;;;;;0.98;0.98;;;4.80;99.90;;;;;;6247595;23;20352;-77
2023/10/16 02:19:48;;;;;;;0.50;0.50;;;4.80;99.90;;;;;;6248778;23;20173;-78
2023/10/16 02:22:16;;;;;;;0.60;0.60;;;4.70;99.90;;;;;;6248191;23;20198;-76
2023/10/16 02:24:44;;;;;;;1.33;1.02;;;4.80;99.90;;;;;;6248449;23;20631;-77
2023/10/16 02:27:12;;;;;;;0.40;0.40;;;4.80;99.90;;;;;;6247804;23;20186;-79
2023/10/16 02:29:45;;;;;;;0.98;0.98;;;4.70;99.90;;;;;;6249822;23;20186;-77
2023/10/16 02:32:13;;;;;;;0.40;0.40;;;4.70;99.90;;;;;;6255916;23;20186;-76
2023/10/16 02:34:41;;;;;;;0.40;0.40;;;4.80;99.90;;;;;;6258317;23;20187;-78
2023/10/16 02:37:14;;;;;;;0.50;0.50;;;4.50;99.90;;;;;;6249737;23;20178;-76
2023/10/16 02:39:44;;;;;;;0.80;0.80;;;4.60;99.90;;;;;;6225390;23;20175;-79
2023/10/16 02:42:14;;;;;;;0.70;0.70;;;4.70;99.90;;;;;;6251853;23;20190;-79
2023/10/16 02:44:49;;;;;;;5.10;2.55;;;4.80;99.90;;;;;;6251787;23;20198;-76
2023/10/16 02:47:25;;;;;;;1.05;1.05;;;4.70;99.90;;;;;;6249546;23;20690;-77
2023/10/16 02:49:56;;;;;;;0.40;0.40;;;4.70;99.90;;;;;;6247770;23;20212;-78
2023/10/16 02:52:24;;;;;;;0.40;0.40;;;4.70;99.90;;;;;;6249429;23;20201;-79
2023/10/16 02:54:52;;;;;;;0.40;0.40;;;4.60;99.90;;;;;;6250700;23;20185;-78
2023/10/16 02:57:19;;;;;;;0.50;0.50;;;4.60;99.90;;;;;;6222318;23;20224;-77
2023/10/16 02:59:46;;;;;;;0.40;0.40;;;4.50;99.90;;;;;;6248710;23;20182;-78
2023/10/16 03:02:23;;;;;;;4.78;0.98;;;4.50;99.90;;;;;;6250044;23;20211;-77
2023/10/16 03:04:54;;;;;;;0.40;0.40;;;4.50;99.90;;;;;;6249512;23;20383;-77
2023/10/16 03:07:21;;;;;;;0.40;0.40;;;4.50;99.90;;;;;;6249742;23;20253;-76
2023/10/16 03:09:52;;;;;;;1.67;1.58;;;4.60;99.90;;;;;;6249179;23;20213;-77
2023/10/16 03:12:20;;;;;;;1.15;1.05;;;4.50;99.90;;;;;;6249729;23;20198;-76
2023/10/16 03:14:58;;;;;;;0.40;0.40;;;4.60;99.90;;;;;;6249702;23;20185;-78
2023/10/16 03:19:58;;;;;;;1.73;1.63;;;4.40;99.90;;;;;;6249712;23;20233;-77
2023/10/16 03:22:25;;;;;;;0.50;0.50;;;4.50;99.90;;;;;;6248867;23;20553;-76
2023/10/16 03:24:55;;;;;;;0.80;0.80;;;4.40;99.90;;;;;;6249162;23;20404;-78
2023/10/16 03:27:28;;;;;;;0.50;0.50;;;4.40;99.90;;;;;;6249620;23;20167;-79
2023/10/16 03:29:56;;;;;;;1.52;1.45;;;4.40;99.90;;;;;;6249869;23;20189;-78
2023/10/16 03:32:24;;;;;;;0.60;0.60;;;4.40;99.90;;;;;;6249517;23;20248;-77
2023/10/16 03:34:52;;;;;;;0.60;0.60;;;4.50;99.90;;;;;;6249165;23;20185;-78
2023/10/16 03:37:19;;;;;;;0.52;0.52;;;4.50;99.90;;;;;;6222871;23;20186;-78
2023/10/16 03:39:46;;;;;;;0.60;0.60;;;4.50;99.90;;;;;;6249917;23;20185;-77
2023/10/16 03:42:17;;;;;;;0.40;0.40;;;4.50;99.90;;;;;;6250315;23;20182;-78
2023/10/16 03:44:45;;;;;;;0.60;0.60;;;4.40;99.90;;;;;;6253048;23;20707;-78
2023/10/16 03:47:14;;;;;;;1.35;0.93;;;4.40;99.90;;;;;;6253756;23;20703;-77
2023/10/16 03:49:41;;;;;;;0.40;0.40;;;4.30;99.90;;;;;;6223010;23;20184;-77
2023/10/16 03:52:08;;;;;;;1.08;0.93;;;4.20;99.90;;;;;;6223191;23;20268;-76
2023/10/16 03:54:35;;;;;;;1.00;1.00;;;4.20;99.90;;;;;;6249278;23;20176;-77
2023/10/16 03:57:09;;;;;;;0.50;0.50;;;4.30;99.90;;;;;;6249715;23;20191;-77
2023/10/16 03:59:42;;;;;;;1.27;1.17;;;4.20;99.90;;;;;;6251626;23;20166;-77
2023/10/16 04:02:17;;;;;;;1.25;0.70;;;4.30;99.90;;;;;;6250883;23;20238;-78
2023/10/16 04:04:44;;;;;;;0.40;0.40;;;4.30;99.90;;;;;;6200287;23;20494;-76
2023/10/16 04:07:14;;;;;;;0.40;0.40;;;4.20;99.90;;;;;;6223016;23;20246;-77
2023/10/16 04:09:49;;;;;;;1.55;1.45;;;4.20;99.90;;;;;;6249678;23;20201;-77
2023/10/16 04:12:21;;;;;;;0.40;0.40;;;4.40;99.90;;;;;;6251014;23;20189;-76
2023/10/16 04:15:04;;;;;;;1.27;1.17;;;4.40;99.90;;;;;;6223414;23;20166;-77
2023/10/16 04:17:34;;;;;;;0.60;0.60;;;4.50;99.90;;;;;;6249485;23;20171;-76
2023/10/16 04:20:42;;;;;;;0.40;0.40;;;4.50;99.90;;;;;;6250048;23;20240;-76
2023/10/16 04:22:58;;;;;;;8.85;1.35;;;4.50;99.90;;;;;;6260141;23;20189;-77
2023/10/16 04:25:39;;;;;;;1.40;1.30;;;4.40;99.90;;;;;;6250979;23;20167;-76
2023/10/16 04:28:18;;;;;;;56.67;3.25;;;4.30;99.90;;;;;;6249086;23;20374;-76
2023/10/16 04:30:47;;;;;;;1.13;1.13;;;4.20;99.90;;;;;;6248935;23;20367;-76
2023/10/16 04:33:47;;;;;;;0.68;0.68;;;4.30;99.90;;;;;;6248421;23;20393;-75
2023/10/16 04:39:31;;;;;;;0.40;0.40;;;4.30;99.90;;;;;;6247656;23;20196;-78
2023/10/16 04:42:49;;;;;;;0.65;0.65;;;4.10;99.90;;;;;;6249194;23;20205;-76
2023/10/16 04:45:24;;;;;;;0.80;0.80;;;4.20;99.90;;;;;;6248621;23;20596;-75
2023/10/16 04:50:37;;;;;;;0.50;0.50;;;4.30;99.90;;;;;;6249685;23;20169;-77
2023/10/16 04:53:09;;;;;;;0.50;0.50;;;4.30;99.90;;;;;;6258623;23;20563;-77
2023/10/16 05:03:29;;;;;;;1.15;0.65;;;4.70;99.90;;;;;;6248961;23;20179;-76
2023/10/16 05:06:03;;;;;;;3.08;0.90;;;4.70;99.90;;;;;;6249143;23;20170;-76
2023/10/16 05:08:59;;;;;;;1.10;0.95;;;4.80;99.90;;;;;;6248452;23;20449;-76
2023/10/16 05:13:17;;;;;;;0.50;0.50;;;4.80;99.90;;;;;;6248979;23;20467;-76
2023/10/16 05:19:52;;;;;;;0.95;0.95;;;5.00;99.90;;;;;;6259108;23;20178;-77
2023/10/16 06:15:00;;;;;;;2.90;2.70;;;5.90;99.90;;;;;;6265803;23;20160;-78
2023/10/16 06:17:27;;;;;;;0.50;0.50;;;5.80;99.90;;;;;;6263573;23;20245;-78
2023/10/16 06:19:54;;;;;;;1.02;0.93;;;5.70;99.90;;;;;;6256420;23;20178;-77
2023/10/16 06:22:21;;;;;;;0.60;0.60;;;5.80;99.90;;;;;;6248428;23;20253;-80
2023/10/16 06:24:48;;;;;;;0.93;0.93;;;6.10;99.90;;;;;;6221953;23;20385;-76
2023/10/16 06:27:19;;;;;;;0.60;0.60;;;6.40;99.90;;;;;;6248670;23;20245;-76
2023/10/16 06:29:50;;;;;;;0.70;0.70;;;6.50;99.90;;;;;;6248764;23;20171;-77
2023/10/16 06:32:35;;;;;;;1.25;1.25;;;6.50;99.90;;;;;;6222571;23;20226;-80
2023/10/16 06:35:05;;;;;;;1.00;1.00;;;6.50;99.90;;;;;;6247880;23;20191;-82
2023/10/16 06:37:32;;;;;;;2.05;1.95;;;6.50;99.90;;;;;;6247081;23;20191;-77
2023/10/16 06:40:04;;;;;;;0.60;0.60;;;6.60;99.90;;;;;;6248470;23;20194;-78
2023/10/16 06:42:32;;;;;;;1.48;1.38;;;6.60;99.90;;;;;;6247340;23;20175;-77
2023/10/16 06:45:07;;;;;;;0.60;0.60;;;6.70;99.90;;;;;;6247838;23;20195;-76
2023/10/16 06:47:35;;;;;;;0.60;0.60;;;6.70;99.90;;;;;;6248186;23;20167;-78
2023/10/16 06:50:32;;;;;;;0.50;0.50;;;6.70;99.90;;;;;;6222570;23;20272;-77
2023/10/16 06:53:00;;;;;;;0.93;0.93;;;6.60;99.90;;;;;;6247914;23;20226;-77
2023/10/16 06:55:27;;;;;;;1.55;1.45;;;6.70;99.90;;;;;;6248509;23;20548;-80
2023/10/16 06:57:55;;;;;;;0.50;0.50;;;6.80;99.90;;;;;;6249379;23;20183;-77
2023/10/16 07:00:32;;;;;;;0.60;0.60;;;6.90;99.90;;;;;;6248953;23;20187;-81
2023/10/16 07:03:02;;;;;;;0.60;0.60;;;7.00;99.90;;;;;;6223983;23;20235;-76
2023/10/16 07:05:42;;;;;;;0.73;0.73;;;7.00;99.90;;;;;;6251997;23;20187;-78
2023/10/16 07:08:18;;;;;;;0.50;0.50;;;7.10;99.90;;;;;;6248907;23;20168;-78
2023/10/16 07:10:53;;;;;;;0.65;0.65;;;7.30;99.90;;;;;;6248234;23;20567;-77
2023/10/16 07:13:28;;;;;;;0.60;0.60;;;7.90;99.90;;;;;;6245972;23;20253;-76
2023/10/16 07:16:01;;;;;;;0.85;0.85;;;8.00;99.90;;;;;;6247616;23;20156;-77
2023/10/16 07:18:33;;;;;;;0.80;0.80;;;7.80;99.90;;;;;;6248378;23;20175;-79
2023/10/16 07:23:39;;;;;;;0.50;0.50;;;7.50;99.90;;;;;;6248250;23;20480;-78
2023/10/16 07:26:10;;;;;;;0.80;0.80;;;7.40;99.90;;;;;;6247566;23;20235;-79
2023/10/16 07:28:40;;;;;;;0.60;0.60;;;7.60;99.90;;;;;;6247096;23;20191;-77
2023/10/16 07:31:10;;;;;;;1.15;1.15;;;7.60;99.90;;;;;;6249069;23;20231;-78
2023/10/16 07:33:39;;;;;;;0.63;0.63;;;7.60;99.90;;;;;;6247936;23;20526;-76
2023/10/16 07:36:11;;;;;;;0.60;0.60;;;7.80;99.90;;;;;;6249471;23;20194;-77
2023/10/16 07:38:38;;;;;;;0.50;0.50;;;7.70;99.90;;;;;;6248990;23;20214;-80
2023/10/16 07:41:09;;;;;;;0.60;0.60;;;7.70;99.90;;;;;;6222571;23;20387;-79
2023/10/16 07:43:36;;;;;;;0.75;0.75;;;7.70;99.90;;;;;;6259404;23;20202;-78
2023/10/16 07:48:44;;;;;;;0.60;0.60;;;7.40;99.90;;;;;;6252638;23;20167;-78
2023/10/16 07:51:11;;;;;;;0.50;0.50;;;7.50;99.90;;;;;;6249456;23;20170;-79
2023/10/16 07:53:39;;;;;;;0.52;0.52;;;7.40;99.90;;;;;;6250864;23;20266;-77
2023/10/16 07:59:06;;;;;;;0.98;0.98;;;7.60;99.90;;;;;;6251268;23;20172;-77
2023/10/16 08:01:54;;;;;;;1.02;0.90;;;7.60;99.90;;;;;;6250837;23;20252;-77
2023/10/16 08:07:46;;;;;;;0.60;0.60;;;7.90;99.90;;;;;;6250438;23;20211;-76
2023/10/16 08:12:18;;;;;;;0.60;0.60;;;8.90;99.90;;;;;;6253400;23;20183;-80
2023/10/16 08:14:54;;;;;;;0.60;0.60;;;8.90;99.90;;;;;;6253513;23;20547;-79
2023/10/16 08:17:24;;;;;;;0.60;0.60;;;9.60;99.90;;;;;;6227566;23;20506;-81
2023/10/16 08:19:52;;;;;;;1.13;1.13;;;9.40;99.90;;;;;;6225573;23;20184;-79
2023/10/16 08:22:22;;;;;;;0.55;0.55;;;9.10;99.90;;;;;;6224873;23;20183;-78
2023/10/16 08:24:59;;;;;;;0.88;0.88;;;9.50;99.90;;;;;;6251413;23;20168;-78
2023/10/16 08:30:19;;;;;;;0.60;0.60;;;10.80;99.90;;;;;;6247080;23;20227;-78
2023/10/16 08:35:20;;;;;;;0.70;0.70;;;10.30;99.90;;;;;;6248365;23;20164;-80
2023/10/16 08:37:57;;;;;;;0.60;0.60;;;10.30;99.90;;;;;;6219471;23;20238;-78
2023/10/16 08:40:35;;;;;;;0.60;0.60;;;9.80;99.90;;;;;;6248405;23;20167;-80
2023/10/16 08:43:03;;;;;;;0.70;0.70;;;9.60;99.90;;;;;;6248709;23;20225;-78
2023/10/16 08:45:34;;;;;;;0.60;0.60;;;9.90;99.90;;;;;;6248941;23;20199;-80
2023/10/16 08:48:10;;;;;;;1.10;1.10;;;10.10;99.90;;;;;;6249432;23;20167;-79
2023/10/16 08:50:49;;;;;;;1.52;1.42;;;10.20;99.90;;;;;;6249549;23;20172;-78
2023/10/16 08:53:32;;;;;;;0.70;0.70;;;10.50;99.90;;;;;;6249662;23;20191;-82
2023/10/16 08:56:08;;;;;;;0.60;0.60;;;9.70;99.90;;;;;;6180019;23;20168;-79
2023/10/16 08:58:41;;;;;;;0.60;0.60;;;9.30;99.90;;;;;;6246821;23;20167;-81
2023/10/16 09:01:09;;;;;;;0.60;0.60;;;9.10;99.90;;;;;;6223101;23;20222;-78
2023/10/16 09:03:46;;;;;;;0.80;0.80;;;8.90;99.90;;;;;;6250386;23;20215;-79
2023/10/16 09:06:22;;;;;;;0.60;0.60;;;9.80;99.90;;;;;;6225904;23;20392;-78
2023/10/16 09:08:50;;;;;;;0.60;0.60;;;10.00;99.90;;;;;;6250858;23;20168;-79
2023/10/16 09:11:21;;;;;;;0.60;0.60;;;10.10;99.90;;;;;;6249291;23;20211;-77
2023/10/16 09:13:51;;;;;;;0.60;0.60;;;10.00;99.90;;;;;;6249178;23;20203;-78
2023/10/16 09:16:30;;;;;;;0.65;0.65;;;9.70;99.90;;;;;;6224011;23;20184;-79
2023/10/16 09:18:58;;;;;;;0.60;0.60;;;9.80;99.90;;;;;;6249587;23;20395;-77
2023/10/16 09:21:28;;;;;;;0.60;0.60;;;10.00;99.90;;;;;;6249264;23;20239;-77
2023/10/16 09:24:03;;;;;;;0.60;0.60;;;10.30;99.90;;;;;;6245596;23;20188;-78
2023/10/16 09:26:32;;;;;;;0.60;0.60;;;10.40;99.90;;;;;;6249769;23;20167;-77
2023/10/16 09:29:15;;;;;;;0.80;0.80;;;10.40;99.90;;;;;;6250232;23;20537;-81
2023/10/16 09:31:44;;;;;;;1.00;1.00;;;10.70;99.90;;;;;;6249523;23;20167;-77
2023/10/16 09:34:18;;;;;;;1.02;1.02;;;10.80;99.90;;;;;;6222015;23;20208;-79
2023/10/16 09:36:48;;;;;;;0.60;0.60;;;10.20;99.90;;;;;;6248931;23;20195;-80
2023/10/16 09:39:18;;;;;;;1.65;1.55;;;9.80;99.90;;;;;;6249574;23;20183;-80
2023/10/16 09:41:48;;;;;;;0.70;0.70;;;9.80;99.90;;;;;;6249020;23;20222;-77
2023/10/16 09:44:36;;;;;;;0.60;0.60;;;10.00;99.90;;;;;;6249155;23;20275;-76
2023/10/16 09:47:25;;;;;;;0.60;0.60;;;9.80;99.90;;;;;;6223008;23;20279;-78
2023/10/16 09:49:55;;;;;;;0.60;0.60;;;9.60;99.90;;;;;;6248967;23;20175;-79
2023/10/16 09:52:23;;;;;;;0.60;0.60;;;9.40;99.90;;;;;;6249822;23;20187;-78
2023/10/16 09:54:52;;;;;;;0.70;0.70;;;9.70;99.90;;;;;;6249681;23;20207;-79
2023/10/16 09:57:27;;;;;;;0.80;0.80;;;9.50;99.90;;;;;;6248779;23;20184;-79
2023/10/16 10:03:07;;;;;;;0.60;0.60;;;9.40;99.90;;;;;;6214954;23;20218;-81
2023/10/16 10:05:49;;;;;;;0.60;0.60;;;9.40;99.90;;;;;;6246448;23;20214;-78
2023/10/16 10:08:27;;;;;;;0.60;0.60;;;9.30;99.90;;;;;;6259566;23;20167;-79
2023/10/16 10:11:17;;;;;;;0.60;0.60;;;9.50;99.90;;;;;;6259412;23;20462;-77
2023/10/16 10:14:26;;;;;;;0.60;0.60;;;9.70;99.90;;;;;;6248587;23;20234;-76
2023/10/16 10:16:57;;;;;;;0.60;0.60;;;9.90;99.90;;;;;;6248526;23;20168;-80
2023/10/16 10:19:31;;;;;;;0.60;0.60;;;9.60;99.90;;;;;;6248170;23;20239;-80
2023/10/16 10:22:18;;;;;;;0.60;0.60;;;9.70;99.90;;;;;;6221907;23;20522;-78
2023/10/16 10:25:07;;;;;;;0.60;0.60;;;10.10;99.90;;;;;;6248132;23;20210;-80
2023/10/16 10:27:45;;;;;;;0.60;0.60;;;10.50;99.90;;;;;;6249413;23;20474;-79
2023/10/16 10:30:37;;;;;;;0.60;0.60;;;10.60;99.90;;;;;;6224509;23;20198;-80
2023/10/16 10:33:05;;;;;;;1.10;1.05;;;10.30;99.90;;;;;;6250303;23;20198;-77
2023/10/16 10:35:38;;;;;;;0.60;0.60;;;10.50;99.90;;;;;;6248987;23;20183;-79
2023/10/16 10:38:26;;;;;;;0.70;0.70;;;10.90;99.90;;;;;;6249688;23;20340;-80
2023/10/16 10:41:06;;;;;;;0.60;0.60;;;11.30;99.90;;;;;;6250702;23;20214;-77
2023/10/16 10:43:58;;;;;;;0.70;0.70;;;11.80;99.90;;;;;;6255670;23;20191;-79
2023/10/16 10:46:26;;;;;;;1.08;1.08;;;11.80;99.90;;;;;;6261061;23;20180;-77
2023/10/16 10:48:54;;;;;;;1.65;1.40;;;11.60;99.90;;;;;;6264249;23;20182;-79
2023/10/16 10:51:21;;;;;;;0.70;0.70;;;11.30;99.90;;;;;;6265601;23;20187;-78
2023/10/16 10:53:56;;;;;;;0.70;0.70;;;11.20;99.90;;;;;;6256545;23;20275;-78
2023/10/16 10:56:47;;;;;;;0.60;0.60;;;10.90;99.90;;;;;;6252049;23;20199;-79
2023/10/16 10:59:56;;;;;;;0.60;0.60;;;10.90;99.90;;;;;;6223120;23;20168;-81
2023/10/16 11:04:59;;;;;;;0.60;0.60;;;10.80;99.90;;;;;;6248617;23;20171;-77
2023/10/16 11:08:25;;;;;;;0.60;0.60;;;11.10;99.90;;;;;;6222860;23;20228;-80
2023/10/16 11:10:26;;;;;;;0.60;0.60;;;10.90;99.90;;;;;;6239826;23;20489;-78
2023/10/16 11:13:03;;;;;;;0.60;0.60;;;10.90;99.90;;;;;;6219848;23;20544;-78
2023/10/16 11:15:31;;;;;;;0.60;0.60;;;10.90;99.90;;;;;;6248660;23;20254;-76
2023/10/16 11:18:05;;;;;;;0.60;0.60;;;11.30;99.90;;;;;;6249877;23;20531;-78
2023/10/16 11:20:45;;;;;;;0.70;0.70;;;11.60;99.90;;;;;;6248981;23;20202;-78
2023/10/16 11:23:13;;;;;;;0.60;0.60;;;12.00;99.90;;;;;;6250808;23;20206;-79
2023/10/16 11:25:45;;;;;;;0.60;0.60;;;11.80;99.90;;;;;;6252030;23;20210;-79
2023/10/16 11:28:17;;;;;;;0.70;0.70;;;11.50;99.90;;;;;;6252424;23;20160;-79
2023/10/16 11:30:46;;;;;;;0.73;0.73;;;11.10;99.90;;;;;;6252278;23;20739;-78
2023/10/16 11:33:13;;;;;;;0.60;0.60;;;10.80;99.90;;;;;;6252384;23;20179;-79
2023/10/16 11:35:46;;;;;;;0.60;0.60;;;10.70;99.90;;;;;;6252520;23;20183;-79
2023/10/16 11:38:28;;;;;;;0.60;0.60;;;10.60;99.90;;;;;;6232640;23;20183;-78
2023/10/16 11:41:12;;;;;;;0.60;0.60;;;10.70;99.90;;;;;;6253877;23;20198;-80
2023/10/16 11:43:47;;;;;;;1.17;1.17;;;10.50;99.90;;;;;;6250908;23;20190;-78
2023/10/16 11:46:28;;;;;;;0.82;0.82;;;10.30;99.90;;;;;;6250957;23;20190;-79
2023/10/16 11:49:17;;;;;;;0.98;0.98;;;10.10;99.90;;;;;;6250629;23;20171;-78
2023/10/16 11:52:21;;;;;;;0.60;0.60;;;10.20;99.90;;;;;;6250979;23;20172;-81
2023/10/16 11:54:56;;;;;;;0.60;0.60;;;10.40;99.90;;;;;;6250704;23;20191;-78
2023/10/16 11:57:27;;;;;;;0.60;0.60;;;10.60;99.90;;;;;;6248937;23;20167;-80
2023/10/16 11:59:55;;;;;;;1.00;1.00;;;10.80;99.90;;;;;;6222968;23;20207;-76
2023/10/16 12:02:23;;;;;;;2.15;2.05;;;11.00;99.90;;;;;;6249042;23;20535;-78
2023/10/16 12:04:50;;;;;;;0.63;0.63;;;11.10;99.90;;;;;;6249376;23;20188;-80
2023/10/16 12:07:18;;;;;;;0.50;0.50;;;11.30;99.90;;;;;;6248990;23;20221;-78
2023/10/16 12:09:48;;;;;;;0.50;0.50;;;11.40;99.90;;;;;;6249256;23;20187;-78
2023/10/16 12:12:19;;;;;;;0.60;0.60;;;11.30;99.90;;;;;;6249973;23;20183;-77
2023/10/16 12:14:48;;;;;;;0.60;0.60;;;11.40;99.90;;;;;;6251002;23;20188;-79
2023/10/16 12:17:19;;;;;;;3.60;2.47;;;11.50;99.90;;;;;;6251694;23;20205;-77
2023/10/16 12:19:47;;;;;;;0.50;0.50;;;11.60;99.90;;;;;;6250625;23;20405;-79
2023/10/16 12:22:20;;;;;;;0.70;0.70;;;11.30;99.90;;;;;;6251093;23;20182;-76
2023/10/16 12:24:48;;;;;;;0.50;0.50;;;11.10;99.90;;;;;;6250764;23;20474;-79
2023/10/16 12:27:16;;;;;;;0.60;0.60;;;10.50;99.90;;;;;;6250145;23;20187;-78
2023/10/16 12:29:44;;;;;;;0.50;0.50;;;10.30;99.90;;;;;;6249907;23;20245;-78
2023/10/16 12:32:12;;;;;;;0.60;0.60;;;9.60;99.90;;;;;;6250380;23;20353;-77
2023/10/16 12:34:41;;;;;;;0.60;0.60;;;9.40;99.90;;;;;;6248689;23;20222;-79
2023/10/16 12:37:09;;;;;;;1.13;1.13;;;9.10;99.90;;;;;;6249469;23;20180;-79
2023/10/16 12:39:45;;;;;;;0.75;0.75;;;9.10;99.90;;;;;;6222182;23;20206;-80
2023/10/16 12:42:14;;;;;;;0.52;0.52;;;9.40;99.90;;;;;;6249922;23;20372;-78
2023/10/16 12:44:41;;;;;;;0.50;0.50;;;9.40;99.90;;;;;;6254735;23;20202;-80
2023/10/16 12:47:08;;;;;;;0.70;0.70;;;9.70;99.90;;;;;;6254183;23;20184;-79
2023/10/16 12:49:35;;;;;;;0.50;0.50;;;10.00;99.90;;;;;;6249695;23;20182;-78
2023/10/16 12:52:02;;;;;;;0.90;0.90;;;10.30;99.90;;;;;;6251126;23;20176;-77
2023/10/16 12:54:30;;;;;;;0.60;0.60;;;10.50;99.90;;;;;;6255409;23;20250;-79
2023/10/16 12:56:57;;;;;;;0.50;0.50;;;10.40;99.90;;;;;;6255704;23;20183;-79
2023/10/16 12:59:28;;;;;;;0.60;0.60;;;10.40;99.90;;;;;;6249725;23;20511;-79
2023/10/16 13:01:57;;;;;;;0.70;0.70;;;10.30;99.90;;;;;;6249070;23;20199;-80
2023/10/16 13:04:25;;;;;;;0.90;0.90;;;10.10;99.90;;;;;;6249924;23;20523;-79
2023/10/16 13:06:52;;;;;;;0.60;0.60;;;9.90;99.90;;;;;;6250906;23;20182;-80
2023/10/16 13:09:22;;;;;;;0.60;0.60;;;9.60;99.90;;;;;;6251124;23;20192;-79
2023/10/16 13:11:49;;;;;;;0.60;0.60;;;9.50;99.90;;;;;;6251141;23;20222;-78
2023/10/16 13:14:17;;;;;;;0.50;0.50;;;9.60;99.90;;;;;;6224089;23;20199;-78
2023/10/16 13:16:53;;;;;;;0.60;0.60;;;10.00;99.90;;;;;;6251196;23;20591;-78
2023/10/16 13:19:20;;;;;;;0.60;0.60;;;10.20;99.90;;;;;;6251431;23;20171;-77
2023/10/16 13:21:51;;;;;;;0.80;0.80;;;10.40;99.90;;;;;;6225312;23;20175;-78
2023/10/16 13:24:23;;;;;;;0.70;0.70;;;10.40;99.90;;;;;;6250837;23;20176;-80
2023/10/16 13:26:52;;;;;;;0.70;0.70;;;10.40;99.90;;;;;;6253284;23;20175;-79
2023/10/16 13:29:19;;;;;;;0.60;0.60;;;10.00;99.90;;;;;;6251812;23;20198;-79
2023/10/16 13:31:48;;;;;;;0.60;0.60;;;9.80;99.90;;;;;;6253449;23;20184;-80
2023/10/16 13:34:17;;;;;;;0.60;0.60;;;9.70;99.90;;;;;;6252670;23;20238;-78
2023/10/16 13:36:56;;;;;;;0.60;0.60;;;9.60;99.90;;;;;;6226782;23;20548;-78
2023/10/16 13:39:31;;;;;;;0.60;0.60;;;9.60;99.90;;;;;;6252629;23;20167;-80
2023/10/16 13:41:59;;;;;;;14.63;2.08;;;9.90;99.90;;;;;;6223656;23;20256;-78
2023/10/16 13:44:28;;;;;;;1.27;1.27;;;10.00;99.90;;;;;;6249603;23;20210;-80
2023/10/16 13:46:59;;;;;;;0.60;0.60;;;10.00;99.90;;;;;;6249011;23;20492;-76
2023/10/16 13:49:28;;;;;;;0.85;0.85;;;9.80;99.90;;;;;;6249285;23;20219;-79
2023/10/16 13:51:56;;;;;;;0.60;0.60;;;9.60;99.90;;;;;;6248945;23;20462;-77
2023/10/16 13:54:24;;;;;;;0.60;0.60;;;9.60;99.90;;;;;;6221156;23;20238;-81
2023/10/16 13:56:51;;;;;;;0.65;0.65;;;9.70;99.90;;;;;;6250481;23;20184;-80
2023/10/16 13:59:19;;;;;;;0.50;0.50;;;9.80;99.90;;;;;;6223186;23;20211;-76
2023/10/16 14:01:46;;;;;;;1.00;1.00;;;9.80;99.90;;;;;;6248637;23;20175;-79
2023/10/16 14:04:14;;;;;;;0.98;0.98;;;9.80;99.90;;;;;;6249748;23;20251;-79
2023/10/16 14:06:54;;;;;;;0.60;0.60;;;9.90;99.90;;;;;;6249729;23;20184;-79
2023/10/16 14:09:27;;;;;;;0.70;0.70;;;9.90;99.90;;;;;;6249192;23;20168;-77
2023/10/16 14:12:01;;;;;;;0.60;0.60;;;9.90;99.90;;;;;;6250696;23;20163;-77
2023/10/16 14:14:32;;;;;;;1.58;1.55;;;9.80;99.90;;;;;;6222962;23;20656;-80
2023/10/16 14:17:03;;;;;;;0.60;0.60;;;9.80;99.90;;;;;;6250099;23;20184;-78
2023/10/16 14:19:50;;;;;;;2.83;2.38;;;9.70;99.90;;;;;;6249429;23;20178;-78
2023/10/16 14:22:23;;;;;;;0.60;0.60;;;9.50;99.90;;;;;;6248689;23;20656;-81
2023/10/16 14:24:51;;;;;;;1.55;1.45;;;9.40;99.90;;;;;;6250456;23;20179;-78
2023/10/16 14:27:24;;;;;;;0.60;0.60;;;9.10;99.90;;;;;;6255331;23;20408;-78
2023/10/16 14:29:58;;;;;;;0.60;0.60;;;9.00;99.90;;;;;;6250477;23;20179;-79
2023/10/16 14:32:26;;;;;;;0.80;0.80;;;8.80;99.90;;;;;;6249943;23;20578;-77
2023/10/16 14:34:53;;;;;;;2.05;1.95;;;8.70;99.90;;;;;;6250529;23;20269;-79
2023/10/16 14:37:23;;;;;;;0.65;0.65;;;8.60;99.90;;;;;;6249264;23;20238;-78
2023/10/16 14:39:56;;;;;;;0.65;0.65;;;8.50;99.90;;;;;;6249264;23;20183;-76
2023/10/16 14:42:24;;;;;;;0.60;0.60;;;8.60;99.90;;;;;;6248597;23;20497;-78
2023/10/16 14:44:51;;;;;;;25.15;1.27;;;8.50;99.90;;;;;;6247855;23;20525;-79
2023/10/16 14:47:20;;;;;;;0.98;0.98;;;8.50;99.90;;;;;;6248915;23;20721;-78
2023/10/16 14:49:47;;;;;;;1.02;1.02;;;8.40;99.90;;;;;;6249375;23;20223;-78
2023/10/16 14:52:14;;;;;;;0.52;0.52;;;8.30;99.90;;;;;;6248240;23;20206;-78
2023/10/16 14:54:42;;;;;;;0.60;0.60;;;8.30;99.90;;;;;;6248916;23;20208;-80
2023/10/16 14:57:09;;;;;;;0.60;0.60;;;8.20;99.90;;;;;;6248546;23;20199;-77
2023/10/16 14:59:37;;;;;;;0.93;0.93;;;8.20;99.90;;;;;;6222430;23;20183;-81
2023/10/16 15:02:06;;;;;;;1.70;1.60;;;8.20;99.90;;;;;;6250944;23;20254;-78
2023/10/16 15:04:37;;;;;;;1.70;1.60;;;8.20;99.90;;;;;;6251278;23;20178;-79